createdAt,value
2022-11-26T00:00:39.721Z,101619.44
2022-11-26T00:03:11.579Z,101620.34
2022-11-26T00:05:42.006Z,101612.69
2022-11-26T00:08:18.177Z,101633.09
2022-11-26T00:10:51.909Z,101576.88
2022-11-26T00:13:25.750Z,101611.81
2022-11-26T00:15:55.749Z,101609.34
2022-11-26T00:18:27.180Z,101534.47
2022-11-26T00:21:01.514Z,101617.13
2022-11-26T00:23:36.486Z,101591.66
2022-11-26T00:26:19.809Z,101621.47
2022-11-26T00:28:56.033Z,101585.78
2022-11-26T00:31:25.566Z,101610.44
2022-11-26T00:33:58.487Z,101665.97
2022-11-26T00:36:31.751Z,101636.94
2022-11-26T00:39:04.211Z,101651.53
2022-11-26T00:41:38.556Z,101511.81
2022-11-26T00:44:19.279Z,101665.34
2022-11-26T00:46:55.117Z,101653.41
2022-11-26T00:49:25.557Z,101670.53
2022-11-26T00:51:54.002Z,101666.22
2022-11-26T00:54:23.667Z,101665.38
2022-11-26T00:56:53.778Z,101611.69
2022-11-26T00:59:24.790Z,101622.78
2022-11-26T01:01:55.414Z,101664.59
2022-11-26T01:04:30.767Z,101667.19
2022-11-26T01:07:03.056Z,101611.75
2022-11-26T01:09:34.379Z,101683.44
2022-11-26T01:12:11.888Z,101692.84
2022-11-26T01:14:41.466Z,101665.50
2022-11-26T01:17:18.996Z,101708.19
2022-11-26T01:19:49.168Z,101697.97
2022-11-26T01:22:23.713Z,101717.63
2022-11-26T01:24:51.704Z,101721.84
2022-11-26T01:27:22.967Z,101709.91
2022-11-26T01:29:51.564Z,101722.69
2022-11-26T01:32:26.554Z,101723.56
2022-11-26T01:34:57.371Z,101703.03
2022-11-26T01:37:26.123Z,101687.69
2022-11-26T01:39:54.553Z,101740.63
2022-11-26T01:42:34.633Z,101724.38
2022-11-26T01:45:02.848Z,101743.19
2022-11-26T01:47:38.220Z,101740.63
2022-11-26T01:51:06.102Z,101738.91
2022-11-26T01:53:46.030Z,101732.09
2022-11-26T01:56:22.439Z,101745.78
2022-11-26T01:58:59.134Z,101753.50
2022-11-26T02:01:30.472Z,101738.09
2022-11-26T02:04:11.618Z,101755.19
2022-11-26T02:06:40.823Z,101733.84
2022-11-26T02:09:10.793Z,101633.09
2022-11-26T02:11:40.986Z,101727.88
2022-11-26T02:14:20.058Z,101762.03
2022-11-26T02:17:03.099Z,101736.41
2022-11-26T02:20:18.950Z,101757.75
2022-11-26T02:23:12.254Z,101732.16
2022-11-26T02:26:09.499Z,101761.19
2022-11-26T02:28:56.093Z,101750.09
2022-11-26T02:31:33.233Z,101737.25
2022-11-26T02:34:11.436Z,101663.00
2022-11-26T02:36:43.690Z,101747.50
2022-11-26T02:39:16.391Z,101750.94
2022-11-26T02:41:46.633Z,101764.59
2022-11-26T02:44:17.265Z,101752.63
2022-11-26T02:46:50.599Z,101717.63
2022-11-26T02:49:24.734Z,101755.19
2022-11-26T02:52:21.856Z,101744.06
2022-11-26T02:54:51.550Z,101756.00
2022-11-26T02:57:24.662Z,101755.97
2022-11-26T02:59:52.943Z,101729.47
2022-11-26T03:02:27.422Z,101743.13
2022-11-26T03:04:59.029Z,101743.97
2022-11-26T03:07:33.612Z,101721.66
2022-11-26T03:10:02.786Z,101749.00
2022-11-26T03:12:31.342Z,101752.38
2022-11-26T03:14:59.142Z,101766.00
2022-11-26T03:17:28.203Z,101733.53
2022-11-26T03:19:58.803Z,101730.03
2022-11-26T03:42:21.096Z,101726.19
2022-11-26T03:49:39.186Z,101757.69
2022-11-26T03:52:08.674Z,101769.56
2022-11-26T03:54:36.906Z,101767.00
2022-11-26T03:57:05.056Z,101771.19
2022-11-26T03:59:32.791Z,101771.13
2022-11-26T04:02:00.666Z,101775.34
2022-11-26T04:04:29.079Z,101777.03
2022-11-26T04:06:58.266Z,101689.66
2022-11-26T04:09:26.009Z,101781.19
2022-11-26T04:11:53.777Z,101789.69
2022-11-26T04:14:21.520Z,101788.75
2022-11-26T04:16:49.347Z,101787.84
2022-11-26T04:19:17.244Z,101810.00
2022-11-26T04:22:12.259Z,101824.41
2022-11-26T04:25:36.292Z,101824.31
2022-11-26T04:28:27.383Z,101804.50
2022-11-26T04:30:56.648Z,101825.81
2022-11-26T04:33:33.472Z,101835.19
2022-11-26T04:36:11.196Z,101809.31
2022-11-26T04:38:54.427Z,101833.25
2022-11-26T04:41:28.978Z,101844.41
2022-11-26T04:46:49.580Z,101841.72
2022-11-26T04:49:18.090Z,101832.22
2022-11-26T04:51:45.815Z,101846.72
2022-11-26T04:54:13.538Z,101857.72
2022-11-26T04:56:41.904Z,101849.03
2022-11-26T05:03:14.980Z,101864.28
2022-11-26T05:08:45.056Z,101849.53
2022-11-26T05:11:31.867Z,101880.38
2022-11-26T05:14:18.407Z,101871.66
2022-11-26T05:16:56.911Z,101883.63
2022-11-26T05:22:38.759Z,101895.38
2022-11-26T05:25:07.377Z,101891.84
2022-11-26T05:27:35.290Z,101872.88
2022-11-26T05:30:03.194Z,101902.94
2022-11-26T05:32:31.067Z,101887.38
2022-11-26T05:35:08.834Z,101910.50
2022-11-26T05:37:49.975Z,101897.56
2022-11-26T05:40:24.225Z,101914.59
2022-11-26T05:42:55.247Z,101858.75
2022-11-26T05:45:38.991Z,101881.81
2022-11-26T05:54:56.765Z,101921.88
2022-11-26T05:57:24.527Z,101909.78
2022-11-26T06:03:01.387Z,101909.66
2022-11-26T06:05:55.983Z,101920.81
2022-11-26T06:11:27.970Z,101919.00
2022-11-26T06:14:07.422Z,101936.94
2022-11-26T06:16:36.485Z,101935.25
2022-11-26T06:19:13.307Z,101955.59
2022-11-26T06:25:26.667Z,101942.72
2022-11-26T06:32:36.386Z,101921.13
2022-11-26T06:35:05.460Z,101935.69
2022-11-26T06:37:48.514Z,101914.06
2022-11-26T06:43:58.039Z,101949.94
2022-11-26T06:46:33.216Z,101941.38
2022-11-26T06:49:11.306Z,101921.56
2022-11-26T06:51:44.349Z,101944.69
2022-11-26T06:54:16.225Z,101956.69
2022-11-26T06:57:29.321Z,101957.59
2022-11-26T07:00:38.743Z,101961.78
2022-11-26T07:06:38.445Z,101941.13
2022-11-26T07:09:35.943Z,101960.06
2022-11-26T07:16:01.059Z,101948.81
2022-11-26T07:19:43.685Z,101973.88
2022-11-26T07:23:26.976Z,101975.00
2022-11-26T08:06:25.042Z,102046.31
2022-11-26T08:08:56.713Z,102031.97
2022-11-26T08:11:27.379Z,101995.22
2022-11-26T08:14:02.907Z,102004.00
2022-11-26T08:16:32.255Z,102010.97
2022-11-26T08:24:30.852Z,102027.44
2022-11-26T08:27:09.661Z,102015.56
2022-11-26T08:30:02.996Z,102013.06
2022-11-26T08:32:38.882Z,101997.72
2022-11-26T08:35:07.537Z,102014.91
2022-11-26T08:37:35.266Z,102020.94
2022-11-26T08:40:05.895Z,102007.41
2022-11-26T08:43:06.715Z,101986.78
2022-11-26T09:07:11.477Z,101909.78
2022-11-26T09:14:49.553Z,101868.66
2022-11-26T09:17:33.609Z,102019.00
2022-11-26T09:20:24.600Z,102011.66
2022-11-26T09:44:12.585Z,102046.50
2022-11-26T09:48:14.203Z,102047.38
2022-11-26T09:54:31.007Z,102049.44
2022-11-26T10:05:22.164Z,102057.88
2022-11-26T10:08:50.664Z,102065.91
2022-11-26T10:15:40.765Z,102056.31
2022-11-26T10:18:22.753Z,102066.63
2022-11-26T10:25:48.137Z,102051.91
2022-11-26T10:28:38.487Z,102062.75
2022-11-26T10:32:15.245Z,101993.56
2022-11-26T10:49:58.476Z,102040.22
2022-11-26T10:53:25.070Z,102063.19
2022-11-26T10:57:06.326Z,102070.28
2022-11-26T11:10:15.492Z,102066.16
2022-11-26T11:17:29.680Z,102057.72
2022-11-26T11:38:35.880Z,101969.47
2022-11-26T11:41:26.708Z,102048.66
2022-11-26T11:44:15.560Z,102048.78
2022-11-26T11:47:36.736Z,102029.22
2022-11-26T11:50:17.445Z,101981.28
2022-11-26T11:53:10.255Z,101926.75
2022-11-26T11:55:54.232Z,102038.06
2022-11-26T11:58:59.890Z,101971.69
2022-11-26T12:01:47.633Z,101946.38
2022-11-26T12:04:27.529Z,102012.56
2022-11-26T12:07:16.881Z,101745.47
2022-11-26T12:09:53.837Z,102014.25
2022-11-26T12:12:42.622Z,101860.09
2022-11-26T12:15:28.661Z,101915.66
2022-11-26T12:18:07.811Z,102054.25
2022-11-26T12:20:42.181Z,102042.28
2022-11-26T12:23:27.705Z,101741.31
2022-11-26T12:26:07.483Z,101949.19
2022-11-26T12:28:58.858Z,101603.34
2022-11-26T12:31:43.757Z,102031.03
2022-11-26T12:39:43.283Z,102033.66
2022-11-26T12:42:49.386Z,101811.28
2022-11-26T12:49:34.366Z,101771.53
2022-11-26T12:52:30.549Z,101962.34
2022-11-26T12:55:18.920Z,102014.25
2022-11-26T13:02:12.076Z,102039.78
2022-11-26T13:10:14.896Z,101644.41
2022-11-26T13:13:45.751Z,102027.75
2022-11-26T13:17:16.463Z,101844.56
2022-11-26T13:20:12.044Z,101617.34
2022-11-26T13:30:45.460Z,101849.22
2022-11-26T13:33:40.492Z,101798.91
2022-11-26T13:36:27.811Z,101787.94
2022-11-26T13:39:06.805Z,101765.69
2022-11-26T13:42:01.893Z,102024.91
2022-11-26T13:49:22.827Z,101705.19
2022-11-26T13:51:55.649Z,101721.38
2022-11-26T13:54:28.839Z,102011.16
2022-11-26T13:57:20.973Z,102005.13
2022-11-26T14:08:52.337Z,101993.34
2022-11-26T14:11:57.778Z,101998.69
2022-11-26T14:14:39.512Z,101904.91
2022-11-26T14:21:14.153Z,101893.00
2022-11-26T14:23:48.876Z,101981.72
2022-11-26T14:26:20.084Z,101957.06
2022-11-26T14:28:48.657Z,101954.56
2022-11-26T14:31:21.809Z,101949.50
2022-11-26T14:33:52.704Z,101975.97
2022-11-26T14:36:25.652Z,101912.81
2022-11-26T14:47:19.615Z,101969.34
2022-11-26T14:53:23.819Z,101973.72
2022-11-26T14:56:26.245Z,101972.94
2022-11-26T14:59:15.280Z,101943.91
2022-11-26T15:12:40.493Z,101695.97
2022-11-26T15:15:41.601Z,101959.78
2022-11-26T15:19:05.740Z,101960.75
2022-11-26T15:22:19.473Z,101966.84
2022-11-26T15:25:13.786Z,101952.41
2022-11-26T15:28:01.993Z,101943.94
2022-11-26T15:30:50.807Z,101865.34
2022-11-26T15:36:23.619Z,101873.94
2022-11-26T15:39:39.330Z,101963.72
2022-11-26T15:42:28.302Z,101971.44
2022-11-26T15:45:02.538Z,101948.38
2022-11-26T15:47:31.236Z,101980.91
2022-11-26T15:50:03.928Z,101952.69
2022-11-26T15:59:47.356Z,101952.63
2022-11-26T16:02:30.104Z,101648.22
2022-11-26T16:08:51.915Z,101853.38
2022-11-26T16:11:24.829Z,101826.84
2022-11-26T16:13:53.695Z,101902.06
2022-11-26T16:16:52.114Z,101652.41
2022-11-26T16:19:37.499Z,101986.75
2022-11-26T16:23:14.824Z,101630.16
2022-11-26T16:26:32.717Z,101965.34
2022-11-26T16:29:08.940Z,101844.66
2022-11-26T16:32:05.028Z,101862.63
2022-11-26T16:34:38.712Z,101913.03
2022-11-26T16:37:49.348Z,101869.44
2022-11-26T16:40:38.911Z,101665.00
2022-11-26T16:43:53.187Z,101667.63
2022-11-26T16:46:58.797Z,101858.34
2022-11-26T16:49:48.969Z,101635.22
2022-11-26T16:52:32.799Z,101858.41
2022-11-26T16:55:08.139Z,101972.22
2022-11-26T16:58:21.120Z,101826.75
2022-11-26T17:01:07.961Z,101896.91
2022-11-26T17:03:52.709Z,101690.81
2022-11-26T17:07:00.036Z,101714.72
2022-11-26T17:09:58.144Z,101706.16
2022-11-26T17:15:33.949Z,101707.88
2022-11-26T17:18:41.376Z,101997.00
2022-11-26T17:21:54.369Z,101980.75
2022-11-26T17:24:32.076Z,101866.97
2022-11-26T17:27:01.953Z,101984.16
2022-11-26T17:29:29.810Z,101990.97
2022-11-26T17:31:57.567Z,101993.56
2022-11-26T17:34:25.307Z,101982.44
2022-11-26T17:36:59.240Z,101990.97
2022-11-26T17:39:27.825Z,101984.13
2022-11-26T17:41:55.725Z,101986.69
2022-11-26T17:44:23.565Z,101984.97
2022-11-26T17:47:15.809Z,101990.06
2022-11-26T17:49:39.251Z,101986.63
2022-11-26T17:52:08.501Z,101990.03
2022-11-26T17:54:36.277Z,101982.34
2022-11-26T17:57:04.204Z,101936.91
2022-11-26T17:59:32.473Z,101982.31
2022-11-26T18:02:01.664Z,101968.59
2022-11-26T18:04:29.547Z,101979.69
2022-11-26T18:07:02.029Z,101969.44
2022-11-26T18:09:31.176Z,101971.16
2022-11-26T18:12:00.177Z,101966.88
2022-11-26T18:14:28.089Z,101967.69
2022-11-26T18:16:55.994Z,101967.69
2022-11-26T18:19:24.378Z,101931.72
2022-11-26T18:21:52.467Z,101960.84
2022-11-26T18:24:20.408Z,101960.78
2022-11-26T18:26:49.450Z,101921.41
2022-11-26T18:29:17.231Z,101953.06
2022-11-26T18:31:44.967Z,101953.91
2022-11-26T18:34:13.093Z,101953.91
2022-11-26T18:36:41.119Z,101947.88
2022-11-26T18:39:08.892Z,101947.84
2022-11-26T18:41:36.786Z,101939.28
2022-11-26T18:44:05.855Z,101940.09
2022-11-26T18:46:33.639Z,101944.31
2022-11-26T18:49:01.410Z,101934.94
2022-11-26T18:51:29.409Z,101934.94
2022-11-26T18:53:57.153Z,101921.28
2022-11-26T18:56:25.379Z,101922.97
2022-11-26T18:58:53.260Z,101927.22
2022-11-26T19:01:25.303Z,101930.63
2022-11-26T19:03:53.805Z,101897.19
2022-11-26T19:06:25.217Z,101899.75
2022-11-26T19:08:58.247Z,101925.44
2022-11-26T19:11:27.652Z,101928.84
2022-11-26T19:13:57.194Z,101942.47
2022-11-26T19:16:28.673Z,101944.19
2022-11-26T19:18:56.754Z,101933.09
2022-11-26T19:21:26.668Z,101937.34
2022-11-26T19:23:56.397Z,101941.59
2022-11-26T19:26:25.008Z,101932.19
2022-11-26T19:28:53.254Z,101927.09
2022-11-26T19:31:24.033Z,101933.88
2022-11-26T19:33:57.792Z,101928.69
2022-11-26T19:36:26.426Z,101883.31
2022-11-26T19:38:59.923Z,101843.00
2022-11-26T19:41:29.309Z,101917.44
2022-11-26T19:43:57.502Z,101903.78
2022-11-26T19:46:26.529Z,101914.00
2022-11-26T19:48:56.457Z,101847.88
2022-11-26T19:51:26.233Z,101888.22
2022-11-26T19:53:56.072Z,101910.47
2022-11-26T19:56:26.186Z,101917.25
2022-11-26T19:58:54.981Z,101874.41
2022-11-26T20:01:23.394Z,101895.78
2022-11-26T20:03:51.418Z,101915.44
2022-11-26T20:06:22.655Z,101918.81
2022-11-26T20:08:51.078Z,101925.59
2022-11-26T20:11:30.662Z,101929.81
2022-11-26T20:13:59.437Z,101929.78
2022-11-26T20:16:50.362Z,101922.94
2022-11-26T20:20:26.367Z,101915.94
2022-11-26T20:23:08.478Z,101847.31
2022-11-26T20:25:38.128Z,101807.84
2022-11-26T20:28:07.042Z,101679.91
2022-11-26T20:30:35.630Z,101753.50
2022-11-26T20:33:03.836Z,101804.09
2022-11-26T20:35:33.861Z,101815.00
2022-11-26T20:38:17.140Z,101763.66
2022-11-26T20:40:45.745Z,101774.66
2022-11-26T20:43:14.422Z,101612.59
2022-11-26T20:45:42.477Z,101785.06
2022-11-26T20:48:10.486Z,101934.91
2022-11-26T20:50:39.001Z,101928.88
2022-11-26T20:53:08.314Z,101925.47
2022-11-26T20:55:36.204Z,101941.59
2022-11-26T20:58:03.967Z,101934.75
2022-11-26T21:00:31.826Z,101807.81
2022-11-26T21:03:00.796Z,101945.81
2022-11-26T21:05:28.567Z,101955.16
2022-11-26T21:07:56.347Z,101961.97
2022-11-26T21:10:28.706Z,101967.03
2022-11-26T21:12:56.679Z,101966.13
2022-11-26T21:15:24.411Z,101966.09
2022-11-26T21:17:52.718Z,101956.59
2022-11-26T21:20:20.684Z,101960.91
2022-11-26T21:22:48.400Z,101954.06
2022-11-26T21:25:16.411Z,101956.56
2022-11-26T21:27:45.487Z,101951.44
2022-11-26T21:30:14.236Z,101952.22
2022-11-26T21:32:42.066Z,101954.75
2022-11-26T21:35:11.067Z,101932.44
2022-11-26T21:37:38.773Z,101949.53
2022-11-26T21:40:07.645Z,101949.47
2022-11-26T21:42:35.479Z,101951.13
2022-11-26T21:45:05.190Z,101956.19
2022-11-26T21:47:32.926Z,101958.69
2022-11-26T21:50:00.848Z,101965.41
2022-11-26T21:52:28.780Z,101961.97
2022-11-26T21:54:59.618Z,101952.59
2022-11-26T21:57:31.654Z,101939.69
2022-11-26T21:59:59.440Z,101943.09
2022-11-26T22:02:28.820Z,101940.50
2022-11-26T22:04:56.745Z,101710.66
2022-11-26T22:07:24.700Z,101924.22
2022-11-26T22:09:52.610Z,101892.41
2022-11-26T22:12:20.455Z,101870.19
2022-11-26T22:14:48.354Z,101900.19
2022-11-26T22:17:16.157Z,101906.91
2022-11-26T22:19:45.283Z,101620.38
2022-11-26T22:22:13.047Z,101387.69
2022-11-26T22:24:40.918Z,101729.22
2022-11-26T22:27:08.765Z,101612.13
2022-11-26T22:29:36.593Z,101713.22
2022-11-26T22:32:04.593Z,101491.19
2022-11-26T22:34:32.644Z,101754.38
2022-11-26T22:37:02.308Z,101867.50
2022-11-26T22:39:31.723Z,101865.75
2022-11-26T22:42:00.465Z,101858.06
2022-11-26T22:44:31.718Z,101796.25
2022-11-26T22:47:00.029Z,101397.75
2022-11-26T22:49:30.323Z,101709.47
2022-11-26T22:51:58.128Z,101696.59
2022-11-26T22:54:27.609Z,101196.84
2022-11-26T22:56:56.446Z,101852.78
2022-11-26T22:59:24.252Z,101534.63
2022-11-26T23:01:55.999Z,101845.78
2022-11-26T23:04:23.937Z,101849.97
2022-11-26T23:06:51.703Z,101852.47
2022-11-26T23:09:20.716Z,101851.56
2022-11-26T23:11:50.842Z,101480.78
2022-11-26T23:14:18.836Z,101377.25
2022-11-26T23:16:46.853Z,101438.06
2022-11-26T23:19:16.136Z,101732.25
2022-11-26T23:21:47.225Z,101784.59
2022-11-26T23:24:15.415Z,101839.31
2022-11-26T23:26:44.097Z,101664.53
2022-11-26T23:29:13.977Z,101821.44
2022-11-26T23:31:44.764Z,101758.63
2022-11-26T23:34:14.279Z,101814.66
2022-11-26T23:36:42.156Z,101393.81
2022-11-26T23:39:13.201Z,101805.16
2022-11-26T23:41:41.361Z,101511.13
2022-11-26T23:44:11.541Z,101392.25
2022-11-26T23:46:41.125Z,101362.38
2022-11-26T23:49:10.275Z,101598.81
2022-11-26T23:51:38.326Z,101784.75
2022-11-26T23:54:07.055Z,101646.13
2022-11-26T23:56:36.151Z,101117.72
2022-11-26T23:59:06.652Z,101333.47
